createdAt,value
2022-10-18T00:04:08.963Z,5.50
2022-10-18T00:09:14.026Z,5.70
2022-10-18T00:14:17.511Z,5.90
2022-10-18T00:19:23.761Z,7.10
2022-10-18T00:24:29.930Z,6.60
2022-10-18T00:29:34.484Z,4.90
2022-10-18T00:34:41.305Z,6.60
2022-10-18T00:39:46.354Z,5.10
2022-10-18T00:44:51.076Z,5.90
2022-10-18T00:49:59.091Z,4.20
2022-10-18T00:55:04.143Z,5.10
2022-10-18T01:00:10.955Z,6.10
2022-10-18T01:05:17.523Z,5.20
2022-10-18T01:10:46.424Z,5.20
2022-10-18T01:16:21.283Z,5.60
2022-10-18T01:21:50.767Z,5.70
2022-10-18T01:27:26.568Z,6.00
2022-10-18T01:32:39.446Z,5.50
2022-10-18T01:37:47.727Z,4.60
2022-10-18T01:42:55.393Z,5.10
2022-10-18T01:48:04.314Z,4.70
2022-10-18T01:53:26.333Z,5.80
2022-10-18T01:58:49.402Z,7.20
2022-10-18T02:03:58.213Z,6.90
2022-10-18T02:09:27.892Z,6.70
2022-10-18T02:14:32.517Z,4.80
2022-10-18T02:19:45.203Z,7.00
2022-10-18T02:24:56.513Z,6.20
2022-10-18T02:30:01.130Z,5.00
2022-10-18T02:35:20.979Z,6.90
2022-10-18T02:40:25.781Z,5.70
2022-10-18T02:45:29.410Z,6.10
2022-10-18T02:50:36.127Z,5.60
2022-10-18T02:55:40.376Z,5.80
2022-10-18T03:00:45.467Z,5.20
2022-10-18T03:05:53.401Z,5.40
2022-10-18T03:10:58.264Z,5.50
2022-10-18T03:16:03.028Z,5.70
2022-10-18T03:21:08.394Z,5.50
2022-10-18T03:26:13.494Z,4.70
2022-10-18T03:31:17.906Z,5.80
2022-10-18T03:36:21.232Z,6.20
2022-10-18T03:41:25.305Z,6.20
2022-10-18T03:46:29.110Z,6.40
2022-10-18T03:51:33.701Z,7.30
2022-10-18T03:56:38.581Z,6.60
2022-10-18T04:01:43.475Z,8.10
2022-10-18T04:06:47.925Z,7.10
2022-10-18T04:11:52.231Z,6.10
2022-10-18T04:16:55.870Z,8.10
2022-10-18T04:22:00.644Z,7.80
2022-10-18T04:27:06.679Z,7.90
2022-10-18T04:32:11.165Z,6.20
2022-10-18T04:37:14.816Z,7.40
2022-10-18T04:42:18.795Z,6.90
2022-10-18T04:47:23.836Z,7.00
2022-10-18T04:52:28.164Z,6.60
2022-10-18T04:57:32.545Z,8.00
2022-10-18T05:02:37.331Z,7.10
2022-10-18T05:07:41.013Z,6.80
2022-10-18T05:12:45.714Z,7.20
2022-10-18T05:17:49.487Z,7.10
2022-10-18T05:22:53.082Z,5.70
2022-10-18T05:27:58.001Z,6.50
2022-10-18T05:33:02.355Z,8.50
2022-10-18T05:38:07.051Z,5.90
2022-10-18T05:43:12.987Z,6.30
2022-10-18T05:48:17.993Z,8.40
2022-10-18T05:53:36.186Z,8.20
2022-10-18T05:58:42.348Z,11.00
2022-10-18T06:03:46.228Z,8.20
2022-10-18T06:08:51.276Z,9.20
2022-10-18T06:13:56.009Z,8.60
2022-10-18T06:19:00.497Z,9.40
2022-10-18T06:24:03.844Z,9.40
2022-10-18T06:29:07.683Z,8.10
2022-10-18T06:34:11.597Z,8.10
2022-10-18T06:39:15.740Z,8.40
2022-10-18T06:44:23.051Z,8.20
2022-10-18T06:49:27.952Z,6.80
2022-10-18T06:54:31.402Z,7.10
2022-10-18T06:59:35.913Z,6.60
2022-10-18T07:04:40.789Z,7.30
2022-10-18T07:09:46.829Z,6.30
2022-10-18T07:14:52.410Z,6.90
2022-10-18T07:19:57.118Z,6.60
2022-10-18T07:25:01.871Z,5.90
2022-10-18T07:30:08.471Z,6.10
2022-10-18T07:40:21.003Z,7.40
2022-10-18T07:45:25.583Z,6.90
2022-10-18T07:50:30.549Z,6.50
2022-10-18T07:55:34.027Z,6.10
2022-10-18T08:00:37.902Z,7.80
2022-10-18T08:05:42.392Z,8.50
2022-10-18T08:10:48.906Z,5.90
2022-10-18T08:16:00.180Z,7.50
2022-10-18T08:21:06.338Z,7.90
2022-10-18T08:26:15.433Z,8.40
2022-10-18T08:31:20.473Z,8.80
2022-10-18T08:36:25.119Z,8.10
2022-10-18T08:41:38.547Z,8.60
2022-10-18T08:46:47.815Z,8.10
2022-10-18T08:51:52.889Z,9.80
2022-10-18T08:57:02.332Z,8.40
2022-10-18T09:02:12.938Z,9.60
2022-10-18T09:08:01.560Z,9.50
2022-10-18T09:13:47.860Z,9.30
2022-10-18T09:19:09.202Z,10.50
2022-10-18T09:24:16.455Z,10.80
2022-10-18T09:29:48.611Z,12.10
2022-10-18T09:34:57.083Z,11.10
2022-10-18T09:40:18.766Z,11.80
2022-10-18T09:45:34.856Z,11.10
2022-10-18T09:50:46.308Z,12.70
2022-10-18T09:56:02.255Z,13.20
2022-10-18T10:01:08.409Z,13.00
2022-10-18T10:06:12.618Z,12.20
2022-10-18T10:11:35.180Z,13.20
2022-10-18T10:16:52.059Z,10.90
2022-10-18T10:22:00.620Z,14.20
2022-10-18T10:27:07.276Z,12.80
2022-10-18T10:32:14.115Z,12.70
2022-10-18T10:37:23.425Z,14.20
2022-10-18T10:42:27.103Z,13.00
2022-10-18T10:47:34.543Z,13.50
2022-10-18T10:52:40.658Z,12.70
2022-10-18T10:57:48.274Z,11.50
2022-10-18T11:03:27.879Z,13.10
2022-10-18T11:08:39.818Z,12.10
2022-10-18T11:13:57.018Z,14.50
2022-10-18T11:19:39.674Z,13.00
2022-10-18T11:24:44.206Z,12.50
2022-10-18T11:30:29.504Z,15.70
2022-10-18T11:36:03.575Z,15.60
2022-10-18T11:41:22.925Z,14.10
2022-10-18T11:46:47.113Z,16.40
2022-10-18T11:52:08.486Z,14.80
2022-10-18T11:57:31.866Z,15.00
2022-10-18T12:02:44.312Z,12.90
2022-10-18T12:07:52.241Z,14.80
2022-10-18T12:13:02.405Z,16.90
2022-10-18T12:18:15.400Z,15.90
2022-10-18T12:24:01.236Z,16.20
2022-10-18T12:29:33.844Z,15.40
2022-10-18T12:34:45.307Z,15.20
2022-10-18T12:40:32.304Z,13.40
2022-10-18T12:45:50.185Z,15.40
2022-10-18T12:51:18.972Z,15.30
2022-10-18T12:56:28.453Z,13.50
2022-10-18T13:01:52.509Z,14.30
2022-10-18T13:12:10.988Z,12.40
2022-10-18T13:17:15.493Z,13.70
2022-10-18T13:23:06.164Z,14.20
2022-10-18T13:28:17.079Z,14.50
2022-10-18T13:33:36.589Z,14.80
2022-10-18T13:38:59.393Z,16.00
2022-10-18T13:44:04.003Z,15.10
2022-10-18T13:49:44.919Z,15.10
2022-10-18T13:55:52.103Z,15.60
2022-10-18T14:01:14.404Z,15.80
2022-10-18T14:06:25.673Z,15.10
2022-10-18T14:11:49.782Z,14.80
2022-10-18T14:16:58.777Z,14.60
2022-10-18T14:22:19.201Z,15.10
2022-10-18T14:27:28.220Z,14.80
2022-10-18T14:32:32.898Z,17.00
2022-10-18T14:37:37.379Z,16.70
2022-10-18T14:42:48.761Z,15.10
2022-10-18T14:47:52.456Z,17.20
2022-10-18T14:52:56.143Z,18.80
2022-10-18T14:57:59.933Z,18.60
2022-10-18T15:03:11.114Z,20.30
2022-10-18T15:08:14.476Z,20.40
2022-10-18T15:13:18.181Z,15.90
2022-10-18T15:18:25.150Z,8.50
2022-10-18T15:23:34.426Z,3.70
2022-10-18T15:28:51.627Z,3.70
2022-10-18T15:34:15.702Z,1.90
2022-10-18T15:39:27.133Z,1.30
2022-10-18T15:44:35.366Z,1.40
2022-10-18T15:49:52.204Z,1.70
2022-10-18T15:54:58.301Z,1.80
2022-10-18T16:00:08.557Z,1.50
2022-10-18T16:05:18.436Z,1.80
2022-10-18T16:10:24.436Z,1.40
2022-10-18T16:15:28.441Z,1.90
2022-10-18T16:20:31.793Z,2.30
2022-10-18T16:25:39.026Z,1.50
2022-10-18T16:30:49.011Z,1.40
2022-10-18T16:35:54.931Z,2.80
2022-10-18T16:40:58.871Z,3.10
2022-10-18T16:46:04.021Z,3.20
2022-10-18T16:51:07.965Z,3.50
2022-10-18T16:56:33.528Z,3.90
2022-10-18T17:01:39.670Z,2.80
2022-10-18T17:06:47.050Z,3.40
2022-10-18T17:11:53.137Z,3.70
2022-10-18T17:16:57.519Z,2.60
2022-10-18T17:22:02.751Z,3.40
2022-10-18T17:27:07.357Z,3.50
2022-10-18T17:32:11.614Z,4.10
2022-10-18T17:37:15.598Z,3.60
2022-10-18T17:42:22.381Z,3.80
2022-10-18T17:47:29.901Z,3.20
2022-10-18T17:52:46.162Z,3.20
2022-10-18T17:57:56.092Z,3.80
2022-10-18T18:03:01.446Z,3.80
2022-10-18T18:08:05.788Z,3.20
2022-10-18T18:13:10.105Z,2.50
2022-10-18T18:18:14.524Z,2.60
2022-10-18T18:23:19.322Z,2.20
2022-10-18T18:28:23.458Z,3.50
2022-10-18T18:33:28.002Z,4.70
2022-10-18T18:38:36.045Z,3.80
2022-10-18T18:43:43.036Z,5.10
2022-10-18T18:48:47.146Z,4.20
2022-10-18T18:53:54.171Z,5.10
2022-10-18T18:58:59.715Z,4.10
2022-10-18T19:04:10.534Z,4.20
2022-10-18T19:09:20.114Z,5.70
2022-10-18T19:14:25.954Z,4.30
2022-10-18T19:19:31.131Z,4.60
2022-10-18T19:24:35.021Z,4.50
2022-10-18T19:29:39.918Z,3.60
2022-10-18T19:34:46.452Z,5.40
2022-10-18T19:39:50.547Z,4.70
2022-10-18T19:44:54.867Z,3.90
2022-10-18T19:50:00.013Z,3.50
2022-10-18T19:55:03.909Z,4.00
2022-10-18T20:00:09.863Z,3.70
2022-10-18T20:05:19.255Z,3.20
2022-10-18T20:10:23.115Z,4.50
2022-10-18T20:15:28.049Z,4.30
2022-10-18T20:20:35.406Z,5.20
2022-10-18T20:25:39.313Z,5.50
2022-10-18T20:30:42.782Z,5.90
2022-10-18T20:35:50.085Z,5.50
2022-10-18T20:40:55.471Z,6.10
2022-10-18T20:46:00.084Z,6.10
2022-10-18T20:51:13.273Z,6.80
2022-10-18T20:56:23.374Z,7.90
2022-10-18T21:01:30.379Z,10.40
2022-10-18T21:06:42.290Z,9.70
2022-10-18T21:11:51.414Z,9.00
2022-10-18T21:16:55.704Z,10.00
2022-10-18T21:22:03.652Z,10.00
2022-10-18T21:27:07.721Z,9.60
2022-10-18T21:32:15.110Z,10.40
2022-10-18T21:37:20.415Z,10.00
2022-10-18T21:42:26.765Z,9.80
2022-10-18T21:47:30.774Z,9.70
2022-10-18T21:52:35.465Z,9.40
2022-10-18T21:57:40.476Z,8.20
2022-10-18T22:02:46.039Z,10.00
2022-10-18T22:07:51.082Z,8.70
2022-10-18T22:12:55.573Z,9.90
2022-10-18T22:18:00.085Z,11.30
2022-10-18T22:23:04.561Z,8.60
2022-10-18T22:28:07.874Z,9.60
2022-10-18T22:33:11.982Z,10.00
2022-10-18T22:38:16.290Z,11.70
2022-10-18T22:43:20.908Z,9.70
2022-10-18T22:48:24.447Z,10.50
2022-10-18T22:53:28.093Z,9.70
2022-10-18T22:58:31.510Z,11.40
2022-10-18T23:03:35.945Z,12.10
2022-10-18T23:08:40.858Z,10.70
2022-10-18T23:13:45.750Z,10.20
2022-10-18T23:18:54.477Z,11.40
2022-10-18T23:23:59.090Z,10.50
2022-10-18T23:29:04.330Z,11.00
2022-10-18T23:34:10.682Z,10.70
2022-10-18T23:39:15.351Z,10.10
2022-10-18T23:44:19.608Z,9.90
2022-10-18T23:49:24.547Z,9.50
2022-10-18T23:54:29.334Z,9.90
2022-10-18T23:59:33.493Z,9.20
